createdAt,value
2023-03-02T00:02:01.993Z,81.17
2023-03-02T00:04:39.343Z,81.06
2023-03-02T00:07:11.721Z,80.88
2023-03-02T00:09:40.308Z,81.12
2023-03-02T00:12:09.044Z,81.52
2023-03-02T00:14:38.113Z,81.75
2023-03-02T00:17:08.224Z,81.44
2023-03-02T00:19:36.782Z,81.43
2023-03-02T00:22:06.013Z,81.36
2023-03-02T00:24:33.978Z,81.50
2023-03-02T00:27:01.929Z,81.48
2023-03-02T00:29:29.994Z,81.70
2023-03-02T00:31:58.090Z,81.73
2023-03-02T00:34:26.333Z,81.98
2023-03-02T00:36:54.401Z,82.53
2023-03-02T00:39:22.679Z,82.41
2023-03-02T00:41:51.049Z,82.19
2023-03-02T00:44:19.746Z,82.08
2023-03-02T00:46:47.852Z,82.09
2023-03-02T00:49:16.193Z,82.12
2023-03-02T00:51:44.084Z,81.88
2023-03-02T00:54:12.137Z,81.87
2023-03-02T00:56:40.198Z,81.82
2023-03-02T00:59:26.822Z,81.56
2023-03-02T01:02:13.973Z,81.45
2023-03-02T01:04:43.734Z,82.02
2023-03-02T01:07:15.080Z,81.66
2023-03-02T01:09:44.852Z,81.61
2023-03-02T01:12:13.264Z,81.06
2023-03-02T01:14:45.080Z,81.14
2023-03-02T01:17:14.742Z,81.28
2023-03-02T01:19:43.421Z,81.39
2023-03-02T01:22:11.522Z,81.10
2023-03-02T01:24:39.875Z,81.08
2023-03-02T01:27:08.144Z,80.68
2023-03-02T01:29:36.621Z,80.99
2023-03-02T01:32:05.068Z,81.08
2023-03-02T01:34:33.435Z,80.74
2023-03-02T01:37:01.380Z,80.72
2023-03-02T01:39:30.033Z,80.88
2023-03-02T01:41:58.215Z,80.83
2023-03-02T01:44:41.441Z,80.76
2023-03-02T01:47:31.311Z,81.11
2023-03-02T01:50:25.001Z,81.16
2023-03-02T01:52:57.149Z,81.52
2023-03-02T01:55:29.182Z,81.73
2023-03-02T01:57:58.931Z,81.55
2023-03-02T02:00:32.028Z,81.53
2023-03-02T02:03:13.918Z,81.46
2023-03-02T02:05:52.296Z,81.23
2023-03-02T02:08:20.409Z,81.79
2023-03-02T02:10:49.285Z,81.80
2023-03-02T02:13:17.465Z,81.82
2023-03-02T02:15:45.526Z,81.89
2023-03-02T02:18:13.907Z,82.26
2023-03-02T02:20:45.451Z,82.33
2023-03-02T02:23:19.688Z,83.01
2023-03-02T02:25:53.781Z,82.53
2023-03-02T02:28:29.164Z,83.00
2023-03-02T02:31:21.200Z,82.45
2023-03-02T02:33:58.292Z,83.47
2023-03-02T02:36:33.670Z,82.88
2023-03-02T02:39:07.152Z,84.09
2023-03-02T02:41:39.206Z,84.77
2023-03-02T02:44:09.869Z,84.79
2023-03-02T02:46:38.151Z,84.56
2023-03-02T02:49:10.626Z,84.51
2023-03-02T02:51:38.897Z,84.45
2023-03-02T02:54:06.990Z,84.68
2023-03-02T02:56:39.783Z,84.15
2023-03-02T02:59:25.798Z,84.24
2023-03-02T03:01:54.931Z,84.83
2023-03-02T03:04:28.627Z,84.76
2023-03-02T03:07:02.438Z,84.50
2023-03-02T03:09:32.090Z,84.89
2023-03-02T03:12:13.529Z,85.02
2023-03-02T03:14:42.229Z,84.96
2023-03-02T03:17:14.252Z,85.11
2023-03-02T03:19:51.160Z,84.86
2023-03-02T03:22:20.052Z,85.51
2023-03-02T03:24:49.461Z,85.45
2023-03-02T03:27:18.334Z,85.56
2023-03-02T03:29:50.914Z,85.48
2023-03-02T03:32:21.140Z,85.55
2023-03-02T03:34:50.435Z,85.90
2023-03-02T03:37:25.777Z,86.19
2023-03-02T03:39:54.133Z,86.34
2023-03-02T03:42:24.282Z,86.43
2023-03-02T03:44:53.066Z,86.05
2023-03-02T03:47:21.745Z,85.56
2023-03-02T03:49:50.634Z,85.60
2023-03-02T03:52:18.906Z,85.88
2023-03-02T03:54:47.097Z,85.90
2023-03-02T03:57:15.157Z,85.45
2023-03-02T03:59:43.419Z,85.67
2023-03-02T04:02:12.146Z,85.90
2023-03-02T04:04:43.662Z,85.54
2023-03-02T04:07:17.871Z,84.89
2023-03-02T04:09:46.455Z,85.26
2023-03-02T04:12:15.788Z,85.67
2023-03-02T04:14:54.276Z,85.37
2023-03-02T04:17:22.674Z,85.41
2023-03-02T04:19:50.877Z,84.94
2023-03-02T04:22:20.328Z,84.85
2023-03-02T04:24:49.213Z,85.20
2023-03-02T04:27:18.004Z,85.22
2023-03-02T04:29:46.584Z,85.12
2023-03-02T04:32:15.277Z,84.39
2023-03-02T04:34:45.910Z,84.32
2023-03-02T04:37:16.161Z,84.60
2023-03-02T04:39:47.578Z,84.83
2023-03-02T04:42:15.833Z,84.36
2023-03-02T04:44:44.147Z,84.46
2023-03-02T04:47:12.310Z,84.35
2023-03-02T04:49:40.889Z,84.19
2023-03-02T04:52:08.918Z,84.66
2023-03-02T04:54:37.335Z,84.25
2023-03-02T04:57:05.322Z,84.33
2023-03-02T04:59:33.384Z,84.36
2023-03-02T05:02:01.761Z,84.45
2023-03-02T05:04:31.164Z,84.52
2023-03-02T05:06:59.542Z,84.42
2023-03-02T05:09:29.428Z,84.55
2023-03-02T05:11:59.667Z,83.92
2023-03-02T05:14:28.042Z,83.81
2023-03-02T05:16:56.956Z,83.95
2023-03-02T05:19:25.346Z,84.17
2023-03-02T05:21:53.389Z,84.24
2023-03-02T05:24:21.589Z,84.20
2023-03-02T05:26:50.752Z,84.13
2023-03-02T05:29:18.824Z,83.98
2023-03-02T05:31:48.398Z,84.35
2023-03-02T05:34:17.543Z,84.40
2023-03-02T05:36:45.898Z,84.16
2023-03-02T05:39:14.114Z,84.45
2023-03-02T05:41:42.563Z,84.28
2023-03-02T05:44:12.285Z,84.03
2023-03-02T05:46:40.853Z,84.04
2023-03-02T05:49:09.332Z,84.13
2023-03-02T05:51:37.921Z,83.93
2023-03-02T05:54:05.977Z,84.32
2023-03-02T05:56:34.470Z,84.24
2023-03-02T05:59:02.654Z,84.16
2023-03-02T06:01:30.815Z,83.73
2023-03-02T06:03:59.598Z,83.58
2023-03-02T06:06:27.873Z,83.41
2023-03-02T06:08:56.149Z,83.66
2023-03-02T06:11:24.106Z,83.79
2023-03-02T06:13:52.186Z,83.67
2023-03-02T06:16:20.178Z,83.57
2023-03-02T06:18:48.252Z,83.56
2023-03-02T06:21:16.246Z,83.42
2023-03-02T06:23:44.285Z,82.90
2023-03-02T06:26:13.053Z,83.20
2023-03-02T06:28:51.950Z,83.17
2023-03-02T06:31:21.134Z,83.03
2023-03-02T06:33:49.764Z,83.00
2023-03-02T06:36:18.495Z,83.09
2023-03-02T06:38:46.576Z,82.96
2023-03-02T06:41:14.889Z,82.73
2023-03-02T06:43:43.425Z,82.33
2023-03-02T06:46:12.207Z,82.27
2023-03-02T06:48:40.431Z,82.26
2023-03-02T06:51:09.030Z,81.82
2023-03-02T06:53:37.082Z,80.97
2023-03-02T06:56:05.726Z,80.96
2023-03-02T06:58:33.598Z,80.86
2023-03-02T07:01:01.984Z,80.68
2023-03-02T07:03:30.128Z,80.61
2023-03-02T07:05:58.358Z,79.78
2023-03-02T07:08:26.636Z,80.05
2023-03-02T07:10:54.805Z,78.65
2023-03-02T07:13:22.866Z,79.09
2023-03-02T07:15:50.949Z,79.33
2023-03-02T07:18:19.631Z,78.70
2023-03-02T07:20:47.695Z,78.93
2023-03-02T07:23:16.317Z,78.37
2023-03-02T07:25:44.329Z,78.21
2023-03-02T07:28:12.542Z,78.14
2023-03-02T07:30:40.724Z,77.97
2023-03-02T07:33:08.760Z,77.31
2023-03-02T07:35:36.989Z,77.67
2023-03-02T07:38:05.110Z,77.49
2023-03-02T07:40:34.107Z,75.42
2023-03-02T07:43:02.186Z,75.79
2023-03-02T07:45:30.151Z,76.13
2023-03-02T07:47:58.274Z,75.29
2023-03-02T07:50:26.303Z,74.30
2023-03-02T07:52:54.322Z,74.50
2023-03-02T07:55:22.243Z,73.95
2023-03-02T07:57:50.178Z,74.43
2023-03-02T08:00:19.593Z,73.25
2023-03-02T08:02:47.677Z,71.82
2023-03-02T08:05:16.962Z,71.96
2023-03-02T08:07:47.102Z,71.29
2023-03-02T08:10:16.393Z,71.65
2023-03-02T08:12:44.968Z,71.28
2023-03-02T08:15:12.964Z,71.19
2023-03-02T08:17:41.178Z,71.26
2023-03-02T08:20:10.117Z,71.16
2023-03-02T08:22:38.155Z,70.38
2023-03-02T08:25:07.408Z,70.25
2023-03-02T08:27:35.473Z,70.17
2023-03-02T08:30:04.255Z,69.82
2023-03-02T08:32:34.196Z,69.91
2023-03-02T08:35:03.517Z,70.06
2023-03-02T08:37:31.831Z,69.71
2023-03-02T08:40:00.002Z,69.05
2023-03-02T08:42:28.511Z,67.60
2023-03-02T08:44:56.747Z,66.69
2023-03-02T08:47:25.023Z,66.50
2023-03-02T08:49:52.995Z,66.01
2023-03-02T08:52:21.059Z,66.08
2023-03-02T08:54:49.084Z,64.81
2023-03-02T08:57:17.235Z,63.40
2023-03-02T08:59:45.370Z,63.01
2023-03-02T09:02:13.753Z,61.49
2023-03-02T09:04:41.939Z,60.95
2023-03-02T09:07:10.625Z,60.13
2023-03-02T09:09:38.542Z,59.03
2023-03-02T09:12:06.952Z,58.31
2023-03-02T09:14:35.640Z,58.84
2023-03-02T09:17:04.324Z,59.40
2023-03-02T09:19:37.730Z,58.54
2023-03-02T09:22:05.839Z,57.04
2023-03-02T09:24:33.887Z,55.58
2023-03-02T09:27:03.264Z,55.36
2023-03-02T09:29:31.361Z,51.98
2023-03-02T09:31:59.515Z,49.75
2023-03-02T09:34:27.993Z,47.25
2023-03-02T09:36:56.884Z,45.94
2023-03-02T09:39:25.076Z,44.38
2023-03-02T09:42:05.324Z,43.40
2023-03-02T09:44:58.064Z,42.87
2023-03-02T09:47:41.284Z,44.03
2023-03-02T09:50:21.559Z,44.01
2023-03-02T09:52:49.675Z,43.53
2023-03-02T09:55:23.838Z,43.19
2023-03-02T09:57:53.001Z,43.48
2023-03-02T10:00:37.271Z,42.91
2023-03-02T10:03:16.994Z,42.46
2023-03-02T10:05:51.231Z,42.19
2023-03-02T10:08:24.315Z,42.39
2023-03-02T10:10:55.464Z,41.60
2023-03-02T10:13:48.114Z,40.98
2023-03-02T10:16:24.014Z,40.13
2023-03-02T10:19:05.614Z,40.01
2023-03-02T10:21:44.160Z,39.45
2023-03-02T10:24:28.987Z,39.62
2023-03-02T10:27:01.673Z,40.14
2023-03-02T10:29:55.837Z,39.57
2023-03-02T10:32:49.386Z,39.51
2023-03-02T10:35:21.208Z,38.13
2023-03-02T10:37:51.493Z,38.38
2023-03-02T10:40:25.693Z,37.70
2023-03-02T10:42:55.816Z,38.13
2023-03-02T10:45:33.669Z,37.41
2023-03-02T10:48:06.265Z,36.97
2023-03-02T10:50:35.135Z,36.35
2023-03-02T10:53:06.790Z,35.99
2023-03-02T10:55:35.296Z,35.79
2023-03-02T10:58:33.367Z,35.84
2023-03-02T11:01:05.823Z,36.20
2023-03-02T11:03:34.324Z,36.56
2023-03-02T11:06:19.677Z,36.65
2023-03-02T11:08:58.962Z,37.01
2023-03-02T11:11:28.046Z,36.66
2023-03-02T11:13:57.094Z,36.63
2023-03-02T11:16:31.189Z,37.89
2023-03-02T11:19:03.828Z,37.82
2023-03-02T11:21:38.202Z,37.70
2023-03-02T11:24:26.768Z,37.57
2023-03-02T11:27:06.397Z,37.90
2023-03-02T11:29:37.435Z,37.78
2023-03-02T11:32:32.434Z,37.73
2023-03-02T11:35:15.085Z,37.52
2023-03-02T11:37:48.434Z,37.97
2023-03-02T11:40:36.292Z,38.02
2023-03-02T11:43:07.034Z,37.61
2023-03-02T11:45:42.016Z,37.30
2023-03-02T11:48:23.412Z,36.86
2023-03-02T11:51:05.283Z,36.78
2023-03-02T11:53:42.662Z,36.70
2023-03-02T11:56:11.393Z,37.03
2023-03-02T11:58:42.114Z,37.11
2023-03-02T12:01:24.241Z,36.83
2023-03-02T12:03:53.427Z,36.56
2023-03-02T12:06:21.701Z,36.80
2023-03-02T12:08:53.067Z,37.13
2023-03-02T12:11:21.430Z,37.87
2023-03-02T12:13:49.406Z,38.21
2023-03-02T12:16:41.804Z,37.97
2023-03-02T12:19:27.607Z,38.92
2023-03-02T12:22:02.456Z,39.26
2023-03-02T12:24:33.796Z,40.25
2023-03-02T12:27:02.187Z,39.91
2023-03-02T12:29:48.571Z,39.93
2023-03-02T12:32:19.853Z,40.48
2023-03-02T12:35:10.028Z,40.31
2023-03-02T12:37:53.608Z,40.69
2023-03-02T12:40:25.439Z,40.78
2023-03-02T12:42:56.400Z,41.06
2023-03-02T12:45:43.507Z,41.45
2023-03-02T12:48:32.356Z,41.10
2023-03-02T12:51:04.073Z,40.49
2023-03-02T12:53:32.506Z,40.75
2023-03-02T12:56:00.865Z,40.98
2023-03-02T12:58:29.411Z,41.17
2023-03-02T13:00:59.967Z,41.24
2023-03-02T13:03:30.785Z,41.55
2023-03-02T13:06:13.806Z,42.41
2023-03-02T13:08:48.525Z,42.81
2023-03-02T13:11:36.559Z,43.07
2023-03-02T13:14:24.629Z,43.17
2023-03-02T13:17:04.825Z,43.25
2023-03-02T13:19:33.853Z,42.91
2023-03-02T13:22:02.270Z,43.59
2023-03-02T13:24:44.581Z,44.63
2023-03-02T13:27:21.104Z,44.73
2023-03-02T13:29:49.894Z,45.40
2023-03-02T13:32:24.576Z,45.92
2023-03-02T13:34:59.038Z,46.65
2023-03-02T13:37:39.465Z,46.97
2023-03-02T13:40:27.593Z,47.56
2023-03-02T13:42:56.490Z,48.68
2023-03-02T13:45:28.180Z,48.67
2023-03-02T13:47:59.000Z,48.75
2023-03-02T13:50:32.440Z,48.89
2023-03-02T13:53:06.460Z,48.92
2023-03-02T13:55:35.342Z,48.65
2023-03-02T13:58:03.590Z,48.66
2023-03-02T14:00:35.066Z,48.28
2023-03-02T14:03:03.210Z,47.85
2023-03-02T14:05:35.043Z,48.10
2023-03-02T14:08:03.245Z,48.31
2023-03-02T14:10:31.832Z,48.54
2023-03-02T14:13:08.702Z,48.67
2023-03-02T14:15:42.474Z,48.64
2023-03-02T14:18:24.600Z,49.11
2023-03-02T14:20:52.704Z,49.19
2023-03-02T14:23:20.863Z,49.36
2023-03-02T14:25:50.667Z,49.23
2023-03-02T14:28:35.842Z,49.43
2023-03-02T14:31:04.054Z,49.46
2023-03-02T14:33:32.377Z,49.36
2023-03-02T14:36:00.515Z,49.42
2023-03-02T14:38:29.864Z,49.56
2023-03-02T14:40:58.606Z,49.52
2023-03-02T14:43:26.829Z,49.83
2023-03-02T14:45:55.054Z,50.23
2023-03-02T14:48:23.129Z,50.65
2023-03-02T14:50:52.069Z,50.71
2023-03-02T14:53:26.364Z,50.84
2023-03-02T14:55:54.538Z,50.72
2023-03-02T14:58:31.025Z,51.01
2023-03-02T15:01:00.641Z,51.45
2023-03-02T15:03:29.622Z,51.61
2023-03-02T15:06:02.073Z,51.36
2023-03-02T15:08:30.671Z,51.44
2023-03-02T15:10:58.860Z,51.65
2023-03-02T15:13:26.947Z,51.54
2023-03-02T15:15:55.138Z,51.81
2023-03-02T15:18:23.573Z,51.74
2023-03-02T15:20:51.651Z,52.11
2023-03-02T15:23:19.910Z,52.04
2023-03-02T15:25:47.996Z,52.24
2023-03-02T15:28:17.487Z,52.60
2023-03-02T15:30:47.090Z,52.95
2023-03-02T15:33:15.263Z,53.03
2023-03-02T15:35:44.544Z,53.41
2023-03-02T15:38:12.938Z,53.66
2023-03-02T15:40:41.181Z,54.22
2023-03-02T15:43:09.453Z,54.36
2023-03-02T15:45:37.629Z,54.61
2023-03-02T15:48:06.450Z,54.86
2023-03-02T15:50:34.587Z,55.37
2023-03-02T15:53:03.104Z,55.53
2023-03-02T15:55:33.116Z,55.63
2023-03-02T15:58:01.289Z,55.90
2023-03-02T16:00:29.781Z,55.69
2023-03-02T16:02:57.982Z,56.93
2023-03-02T16:05:26.425Z,58.33
2023-03-02T16:07:54.805Z,58.34
2023-03-02T16:10:24.954Z,59.14
2023-03-02T16:12:53.210Z,60.12
2023-03-02T16:15:21.386Z,61.20
2023-03-02T16:17:49.751Z,60.86
2023-03-02T16:20:17.958Z,61.50
2023-03-02T16:22:46.302Z,62.77
2023-03-02T16:25:14.377Z,63.29
2023-03-02T16:27:47.267Z,64.08
2023-03-02T16:30:16.379Z,63.98
2023-03-02T16:32:45.103Z,63.74
2023-03-02T16:35:13.517Z,63.77
2023-03-02T16:37:41.697Z,64.24
2023-03-02T16:40:10.888Z,64.98
2023-03-02T16:42:40.695Z,65.45
2023-03-02T16:45:09.394Z,65.59
2023-03-02T16:47:38.782Z,65.74
2023-03-02T16:50:07.893Z,66.24
2023-03-02T16:52:36.870Z,66.59
2023-03-02T16:55:08.730Z,68.11
2023-03-02T16:57:36.800Z,69.09
2023-03-02T17:00:07.362Z,70.42
2023-03-02T17:02:35.707Z,71.38
2023-03-02T17:05:04.051Z,71.46
2023-03-02T17:07:32.370Z,70.97
2023-03-02T17:10:00.760Z,70.50
2023-03-02T17:12:28.808Z,70.63
2023-03-02T17:14:56.998Z,71.05
2023-03-02T17:17:25.569Z,70.82
2023-03-02T17:19:54.462Z,70.83
2023-03-02T17:22:22.629Z,70.41
2023-03-02T17:24:50.824Z,70.48
2023-03-02T17:27:24.891Z,70.46
2023-03-02T17:29:55.034Z,71.08
2023-03-02T17:32:24.285Z,71.63
2023-03-02T17:34:52.424Z,71.21
2023-03-02T17:37:20.779Z,71.09
2023-03-02T17:39:50.922Z,72.33
2023-03-02T17:42:19.688Z,73.49
2023-03-02T17:44:47.853Z,74.12
2023-03-02T17:47:16.821Z,74.46
2023-03-02T17:49:45.312Z,74.42
2023-03-02T17:52:17.946Z,74.43
2023-03-02T17:54:46.178Z,73.85
2023-03-02T17:57:15.216Z,73.38
2023-03-02T17:59:43.460Z,73.24
2023-03-02T18:02:11.620Z,73.63
2023-03-02T18:04:39.895Z,73.52
2023-03-02T18:07:07.861Z,73.88
2023-03-02T18:09:35.846Z,73.27
2023-03-02T18:12:04.246Z,73.53
2023-03-02T18:14:32.421Z,73.61
2023-03-02T18:17:00.965Z,73.84
2023-03-02T18:19:29.344Z,74.23
2023-03-02T18:21:58.247Z,73.97
2023-03-02T18:24:26.406Z,73.52
2023-03-02T18:26:54.548Z,73.71
2023-03-02T18:29:23.166Z,73.77
2023-03-02T18:31:53.420Z,73.63
2023-03-02T18:34:21.772Z,73.74
2023-03-02T18:36:50.452Z,73.49
2023-03-02T18:39:18.515Z,73.58
2023-03-02T18:41:46.785Z,73.46
2023-03-02T18:44:15.175Z,73.67
2023-03-02T18:46:43.328Z,73.85
2023-03-02T18:49:11.617Z,74.40
2023-03-02T18:51:39.693Z,74.16
2023-03-02T18:54:07.858Z,74.13
2023-03-02T18:56:37.350Z,73.94
2023-03-02T18:59:07.482Z,74.38
2023-03-02T19:01:36.118Z,74.22
2023-03-02T19:04:05.244Z,73.81
2023-03-02T19:06:33.643Z,74.65
2023-03-02T19:09:02.214Z,74.03
2023-03-02T19:11:30.518Z,74.45
2023-03-02T19:13:58.572Z,74.27
2023-03-02T19:16:26.784Z,74.84
2023-03-02T19:18:55.516Z,75.01
2023-03-02T19:21:23.814Z,74.92
2023-03-02T19:23:52.290Z,74.85
2023-03-02T19:26:20.570Z,74.85
2023-03-02T19:28:49.557Z,74.89
2023-03-02T19:31:17.962Z,75.20
2023-03-02T19:33:46.822Z,75.30
2023-03-02T19:36:15.202Z,75.19
2023-03-02T19:38:44.806Z,75.27
2023-03-02T19:41:18.107Z,75.41
2023-03-02T19:43:47.096Z,75.24
2023-03-02T19:46:16.834Z,75.07
2023-03-02T19:48:45.284Z,75.85
2023-03-02T19:51:15.503Z,76.25
2023-03-02T19:53:46.066Z,76.74
2023-03-02T19:56:16.146Z,77.03
2023-03-02T19:58:49.504Z,76.91
2023-03-02T20:01:21.961Z,76.54
2023-03-02T20:03:55.061Z,76.30
2023-03-02T20:06:26.654Z,76.56
2023-03-02T20:08:55.100Z,76.76
2023-03-02T20:11:25.209Z,76.54
2023-03-02T20:13:53.625Z,76.80
2023-03-02T20:16:22.966Z,77.02
2023-03-02T20:18:52.536Z,76.77
2023-03-02T20:21:21.368Z,77.02
2023-03-02T20:23:50.041Z,77.14
2023-03-02T20:26:18.634Z,77.22
2023-03-02T20:28:48.297Z,77.00
2023-03-02T20:31:16.802Z,76.85
2023-03-02T20:33:48.325Z,76.79
2023-03-02T20:36:22.752Z,76.80
2023-03-02T20:38:59.115Z,76.79
2023-03-02T20:41:27.389Z,76.90
2023-03-02T20:43:55.773Z,76.94
2023-03-02T20:46:32.456Z,76.35
2023-03-02T20:49:01.026Z,76.05
2023-03-02T20:51:30.372Z,76.81
2023-03-02T20:53:58.910Z,78.15
2023-03-02T20:56:27.081Z,77.72
2023-03-02T20:58:55.424Z,76.92
2023-03-02T21:01:24.459Z,77.29
2023-03-02T21:03:52.761Z,77.22
2023-03-02T21:06:21.192Z,77.22
2023-03-02T21:08:49.400Z,77.06
2023-03-02T21:11:20.695Z,77.02
2023-03-02T21:13:49.518Z,77.20
2023-03-02T21:16:21.880Z,77.49
2023-03-02T21:18:49.854Z,77.63
2023-03-02T21:21:20.262Z,77.18
2023-03-02T21:23:51.431Z,77.47
2023-03-02T21:26:20.101Z,77.66
2023-03-02T21:28:48.284Z,77.61
2023-03-02T21:31:18.489Z,78.15
2023-03-02T21:33:46.786Z,78.39
2023-03-02T21:36:18.364Z,78.03
2023-03-02T21:38:46.705Z,78.04
2023-03-02T21:41:14.877Z,78.03
2023-03-02T21:43:43.043Z,77.82
2023-03-02T21:46:17.292Z,77.67
2023-03-02T21:48:46.182Z,77.74
2023-03-02T21:51:14.844Z,77.69
2023-03-02T21:53:43.118Z,77.54
2023-03-02T21:56:20.872Z,77.46
2023-03-02T21:58:51.169Z,77.32
2023-03-02T22:01:20.395Z,77.80
2023-03-02T22:03:50.057Z,77.45
2023-03-02T22:06:20.849Z,77.25
2023-03-02T22:08:49.873Z,77.55
2023-03-02T22:11:24.211Z,77.56
2023-03-02T22:13:55.528Z,77.90
2023-03-02T22:16:29.365Z,78.32
2023-03-02T22:18:59.766Z,77.90
2023-03-02T22:21:43.430Z,77.52
2023-03-02T22:24:12.910Z,77.20
2023-03-02T22:26:46.744Z,77.47
2023-03-02T22:29:24.269Z,77.72
2023-03-02T22:31:55.220Z,77.66
2023-03-02T22:34:30.929Z,77.37
2023-03-02T22:37:12.794Z,77.05
2023-03-02T22:39:42.367Z,77.08
2023-03-02T22:42:19.583Z,77.21
2023-03-02T22:45:15.022Z,77.40
2023-03-02T22:47:44.213Z,77.29
2023-03-02T22:50:22.748Z,77.59
2023-03-02T22:52:51.464Z,77.13
2023-03-02T22:55:37.889Z,76.97
2023-03-02T22:58:32.507Z,77.53
2023-03-02T23:01:02.141Z,77.99
2023-03-02T23:03:38.853Z,77.79
2023-03-02T23:06:38.314Z,77.75
2023-03-02T23:09:06.815Z,77.96
2023-03-02T23:11:38.817Z,77.74
2023-03-02T23:14:45.181Z,77.63
2023-03-02T23:17:27.187Z,77.43
2023-03-02T23:19:56.102Z,77.70
2023-03-02T23:22:28.463Z,77.72
2023-03-02T23:24:57.020Z,77.72
2023-03-02T23:27:25.204Z,77.58
2023-03-02T23:29:54.395Z,77.52
2023-03-02T23:32:22.406Z,78.04
2023-03-02T23:34:50.575Z,78.27
2023-03-02T23:37:18.811Z,78.54
2023-03-02T23:39:46.973Z,78.50
2023-03-02T23:42:14.949Z,78.40
2023-03-02T23:44:43.125Z,78.63
2023-03-02T23:47:11.285Z,78.79
2023-03-02T23:49:39.252Z,78.66
2023-03-02T23:52:07.287Z,78.54
2023-03-02T23:54:35.275Z,78.67
2023-03-02T23:57:03.566Z,78.37
2023-03-02T23:59:31.644Z,78.15
